createdAt,value
2023-01-30T00:00:45.777Z,81.44
2023-01-30T00:02:17.456Z,80.95
2023-01-30T00:03:49.127Z,81.00
2023-01-30T00:05:20.837Z,80.74
2023-01-30T00:06:52.525Z,81.49
2023-01-30T00:08:24.265Z,81.44
2023-01-30T00:09:55.861Z,81.86
2023-01-30T00:11:30.035Z,81.73
2023-01-30T00:13:01.699Z,82.40
2023-01-30T00:14:33.263Z,81.86
2023-01-30T00:16:05.863Z,82.07
2023-01-30T00:17:37.483Z,82.43
2023-01-30T00:19:09.176Z,83.18
2023-01-30T00:20:40.815Z,82.10
2023-01-30T00:22:12.561Z,82.63
2023-01-30T00:23:44.994Z,82.56
2023-01-30T00:25:16.724Z,82.97
2023-01-30T00:26:48.472Z,83.43
2023-01-30T00:28:20.194Z,83.58
2023-01-30T00:30:02.511Z,82.75
2023-01-30T00:31:35.583Z,82.72
2023-01-30T00:33:07.421Z,82.76
2023-01-30T00:34:39.029Z,82.24
2023-01-30T00:36:11.230Z,82.88
2023-01-30T00:37:42.841Z,83.50
2023-01-30T00:39:14.525Z,83.96
2023-01-30T00:40:47.099Z,84.73
2023-01-30T00:42:38.672Z,83.94
2023-01-30T00:44:29.560Z,83.47
2023-01-30T00:46:22.015Z,84.18
2023-01-30T00:47:53.697Z,83.50
2023-01-30T00:49:25.314Z,84.06
2023-01-30T00:50:57.172Z,83.32
2023-01-30T00:52:28.879Z,83.86
2023-01-30T00:54:01.070Z,84.07
2023-01-30T00:55:32.884Z,83.63
2023-01-30T00:57:04.600Z,83.29
2023-01-30T00:58:36.197Z,83.96
2023-01-30T01:00:09.338Z,82.61
2023-01-30T01:01:41.415Z,82.58
2023-01-30T01:03:13.610Z,82.28
2023-01-30T01:04:45.728Z,82.60
2023-01-30T01:06:17.444Z,83.01
2023-01-30T01:07:50.350Z,82.38
2023-01-30T01:09:21.969Z,82.49
2023-01-30T01:10:53.564Z,83.00
2023-01-30T01:12:25.182Z,82.01
2023-01-30T01:13:58.915Z,81.27
2023-01-30T01:15:30.568Z,80.62
2023-01-30T01:17:02.256Z,80.87
2023-01-30T01:18:33.923Z,81.00
2023-01-30T01:20:07.098Z,80.66
2023-01-30T01:21:38.744Z,80.94
2023-01-30T01:23:10.935Z,80.25
2023-01-30T01:24:42.700Z,80.98
2023-01-30T01:26:14.351Z,81.24
2023-01-30T01:27:47.875Z,81.19
2023-01-30T01:29:21.539Z,81.41
2023-01-30T01:30:53.191Z,81.77
2023-01-30T01:32:24.854Z,82.05
2023-01-30T01:33:56.846Z,82.79
2023-01-30T01:35:30.472Z,82.36
2023-01-30T01:37:02.126Z,81.95
2023-01-30T01:38:33.768Z,82.07
2023-01-30T01:40:25.167Z,82.10
2023-01-30T01:41:56.802Z,82.19
2023-01-30T01:43:32.267Z,82.77
2023-01-30T01:45:12.566Z,82.21
2023-01-30T01:46:56.231Z,81.96
2023-01-30T01:48:31.404Z,82.04
2023-01-30T01:50:05.627Z,81.82
2023-01-30T01:52:07.337Z,82.22
2023-01-30T01:53:50.663Z,82.27
2023-01-30T01:55:24.324Z,81.82
2023-01-30T01:56:56.019Z,82.23
2023-01-30T01:58:27.596Z,83.09
2023-01-30T02:00:07.316Z,82.74
2023-01-30T02:01:44.348Z,83.51
2023-01-30T02:03:21.564Z,83.02
2023-01-30T02:05:02.934Z,81.80
2023-01-30T02:06:35.648Z,81.97
2023-01-30T02:08:13.399Z,82.22
2023-01-30T02:09:45.111Z,81.67
2023-01-30T02:11:19.567Z,81.89
2023-01-30T02:12:51.944Z,82.11
2023-01-30T02:14:25.494Z,82.57
2023-01-30T02:16:01.712Z,81.58
2023-01-30T02:17:33.267Z,81.88
2023-01-30T02:19:23.299Z,82.15
2023-01-30T02:21:13.177Z,82.88
2023-01-30T02:23:06.125Z,81.71
2023-01-30T02:25:16.711Z,82.20
2023-01-30T02:27:06.906Z,80.89
2023-01-30T02:28:57.371Z,80.68
2023-01-30T02:30:44.201Z,81.36
2023-01-30T02:32:48.573Z,82.02
2023-01-30T02:34:26.904Z,82.87
2023-01-30T02:36:16.414Z,82.56
2023-01-30T02:38:15.377Z,82.77
2023-01-30T02:40:03.951Z,82.98
2023-01-30T02:42:07.105Z,82.19
2023-01-30T02:44:33.712Z,83.14
2023-01-30T02:46:31.509Z,84.00
2023-01-30T02:48:06.193Z,82.87
2023-01-30T02:49:42.499Z,82.96
2023-01-30T02:51:20.723Z,83.33
2023-01-30T02:52:53.071Z,82.40
2023-01-30T02:54:24.800Z,83.26
2023-01-30T02:55:56.981Z,82.93
2023-01-30T02:57:28.593Z,83.37
2023-01-30T02:59:08.909Z,82.67
2023-01-30T03:00:52.701Z,82.11
2023-01-30T03:03:08.794Z,81.18
2023-01-30T03:05:02.457Z,81.96
2023-01-30T03:06:49.481Z,82.05
2023-01-30T03:08:34.617Z,82.40
2023-01-30T03:10:14.411Z,82.43
2023-01-30T03:12:07.842Z,83.15
2023-01-30T03:13:43.210Z,82.82
2023-01-30T03:15:30.366Z,81.96
2023-01-30T03:17:06.462Z,82.14
2023-01-30T03:18:41.752Z,81.42
2023-01-30T03:20:15.165Z,81.65
2023-01-30T03:21:47.193Z,81.99
2023-01-30T03:23:18.886Z,82.75
2023-01-30T03:24:53.075Z,83.38
2023-01-30T03:26:29.043Z,83.56
2023-01-30T03:28:03.722Z,82.41
2023-01-30T03:29:35.735Z,82.40
2023-01-30T03:31:07.551Z,83.17
2023-01-30T03:32:39.210Z,82.83
2023-01-30T03:34:11.634Z,83.79
2023-01-30T03:35:44.649Z,82.36
2023-01-30T03:37:18.305Z,82.33
2023-01-30T03:38:51.883Z,83.38
2023-01-30T03:40:24.652Z,83.35
2023-01-30T03:41:56.880Z,82.69
2023-01-30T03:43:28.572Z,82.76
2023-01-30T03:45:00.161Z,82.66
2023-01-30T03:46:32.206Z,82.69
2023-01-30T03:48:04.065Z,82.43
2023-01-30T03:49:36.065Z,82.70
2023-01-30T03:51:07.713Z,83.53
2023-01-30T03:52:39.268Z,83.09
2023-01-30T03:54:15.517Z,83.42
2023-01-30T03:55:47.192Z,83.53
2023-01-30T03:57:18.860Z,83.61
2023-01-30T03:58:50.574Z,83.26
2023-01-30T04:00:25.691Z,82.81
2023-01-30T04:01:58.053Z,82.89
2023-01-30T04:03:29.984Z,81.93
2023-01-30T04:05:04.620Z,82.37
2023-01-30T04:06:36.770Z,81.72
2023-01-30T04:08:10.373Z,81.50
2023-01-30T04:09:42.074Z,81.21
2023-01-30T04:11:13.844Z,81.30
2023-01-30T04:12:46.487Z,82.25
2023-01-30T04:14:18.511Z,81.47
2023-01-30T04:16:20.488Z,82.03
2023-01-30T04:18:04.422Z,81.77
2023-01-30T04:19:38.799Z,81.55
2023-01-30T04:21:11.039Z,81.82
2023-01-30T04:22:44.058Z,81.15
2023-01-30T04:24:15.831Z,81.43
2023-01-30T04:25:48.390Z,82.21
2023-01-30T04:27:22.585Z,82.37
2023-01-30T04:29:16.942Z,81.77
2023-01-30T04:30:53.056Z,81.41
2023-01-30T04:32:40.787Z,81.38
2023-01-30T04:34:14.139Z,81.07
2023-01-30T04:35:59.322Z,81.70
2023-01-30T04:37:31.826Z,81.66
2023-01-30T04:39:03.868Z,81.25
2023-01-30T04:40:36.909Z,81.18
2023-01-30T04:42:08.707Z,81.16
2023-01-30T04:43:47.235Z,81.43
2023-01-30T04:45:29.361Z,80.68
2023-01-30T04:47:01.936Z,80.35
2023-01-30T04:48:33.694Z,80.15
2023-01-30T04:50:07.119Z,79.82
2023-01-30T04:51:38.863Z,79.72
2023-01-30T04:53:11.098Z,79.76
2023-01-30T04:54:42.993Z,79.29
2023-01-30T04:56:15.232Z,79.21
2023-01-30T04:57:46.974Z,79.80
2023-01-30T04:59:18.665Z,80.07
2023-01-30T05:00:52.252Z,79.25
2023-01-30T05:02:24.077Z,79.86
2023-01-30T05:03:56.160Z,79.51
2023-01-30T05:05:28.235Z,80.13
2023-01-30T05:06:59.829Z,80.33
2023-01-30T05:08:31.432Z,81.24
2023-01-30T05:10:03.215Z,81.71
2023-01-30T05:11:35.179Z,81.56
2023-01-30T05:13:07.005Z,80.61
2023-01-30T05:14:41.326Z,80.56
2023-01-30T05:16:15.459Z,79.80
2023-01-30T05:17:47.086Z,79.21
2023-01-30T05:19:18.837Z,79.07
2023-01-30T05:20:50.469Z,78.46
2023-01-30T05:22:22.077Z,78.66
2023-01-30T05:23:54.035Z,78.32
2023-01-30T05:25:25.700Z,77.37
2023-01-30T05:26:57.382Z,77.47
2023-01-30T05:28:29.583Z,76.80
2023-01-30T05:30:01.282Z,77.65
2023-01-30T05:31:35.377Z,77.83
2023-01-30T05:33:07.063Z,78.27
2023-01-30T05:34:38.692Z,78.63
2023-01-30T05:36:15.550Z,77.54
2023-01-30T05:37:50.798Z,76.89
2023-01-30T05:39:22.546Z,77.34
2023-01-30T05:41:04.497Z,78.10
2023-01-30T05:42:36.132Z,78.04
2023-01-30T05:44:07.873Z,76.99
2023-01-30T05:45:39.536Z,77.52
2023-01-30T05:47:11.173Z,77.54
2023-01-30T05:48:42.758Z,77.72
2023-01-30T05:50:14.389Z,77.57
2023-01-30T05:51:46.010Z,77.37
2023-01-30T05:53:21.291Z,77.25
2023-01-30T05:54:53.693Z,77.02
2023-01-30T05:56:25.588Z,77.72
2023-01-30T05:57:57.209Z,78.00
2023-01-30T05:59:28.935Z,76.46
2023-01-30T06:01:05.353Z,76.71
2023-01-30T06:02:37.140Z,76.56
2023-01-30T06:04:09.234Z,77.59
2023-01-30T06:05:40.932Z,77.07
2023-01-30T06:07:14.572Z,76.87
2023-01-30T06:08:46.767Z,76.70
2023-01-30T06:10:18.446Z,76.23
2023-01-30T06:11:52.416Z,76.41
2023-01-30T06:13:24.762Z,76.50
2023-01-30T06:14:56.394Z,76.39
2023-01-30T06:16:28.692Z,75.98
2023-01-30T06:18:00.460Z,75.39
2023-01-30T06:19:32.085Z,74.61
2023-01-30T06:21:04.325Z,75.24
2023-01-30T06:22:36.085Z,75.15
2023-01-30T06:24:07.932Z,75.12
2023-01-30T06:25:42.715Z,74.91
2023-01-30T06:27:14.533Z,75.85
2023-01-30T06:28:46.151Z,75.63
2023-01-30T06:30:18.013Z,74.33
2023-01-30T06:31:50.071Z,74.57
2023-01-30T06:33:21.921Z,74.84
2023-01-30T06:34:53.580Z,74.60
2023-01-30T06:36:25.154Z,74.77
2023-01-30T06:37:56.733Z,74.55
2023-01-30T06:39:28.364Z,73.93
2023-01-30T06:41:00.240Z,74.14
2023-01-30T06:42:31.808Z,73.18
2023-01-30T06:44:03.493Z,73.75
2023-01-30T06:45:35.105Z,74.41
2023-01-30T06:47:06.737Z,73.60
2023-01-30T06:48:38.369Z,72.66
2023-01-30T06:50:10.075Z,72.43
2023-01-30T06:51:41.743Z,71.95
2023-01-30T06:53:13.593Z,72.34
2023-01-30T06:54:45.230Z,72.54
2023-01-30T06:56:16.987Z,72.33
2023-01-30T06:57:49.277Z,73.18
2023-01-30T06:59:20.944Z,72.71
2023-01-30T07:00:52.685Z,73.03
2023-01-30T07:02:24.315Z,73.16
2023-01-30T07:03:55.975Z,73.62
2023-01-30T07:05:28.999Z,73.94
2023-01-30T07:07:00.577Z,73.70
2023-01-30T07:08:32.175Z,72.71
2023-01-30T07:10:08.553Z,71.85
2023-01-30T07:11:40.577Z,72.81
2023-01-30T07:13:13.116Z,73.06
2023-01-30T07:14:44.769Z,71.55
2023-01-30T07:16:16.427Z,71.77
2023-01-30T07:17:48.065Z,72.57
2023-01-30T07:19:19.653Z,71.84
2023-01-30T07:20:51.345Z,72.07
2023-01-30T07:22:23.019Z,71.44
2023-01-30T07:23:54.785Z,70.85
2023-01-30T07:25:28.833Z,71.36
2023-01-30T07:27:00.527Z,70.97
2023-01-30T07:28:32.435Z,70.98
2023-01-30T07:30:04.481Z,70.25
2023-01-30T07:31:36.090Z,70.62
2023-01-30T07:33:07.872Z,70.66
2023-01-30T07:34:40.009Z,70.00
2023-01-30T07:36:11.674Z,70.19
2023-01-30T07:37:45.974Z,70.38
2023-01-30T07:39:17.620Z,70.07
2023-01-30T07:40:49.251Z,70.72
2023-01-30T07:42:20.985Z,70.96
2023-01-30T07:43:52.598Z,71.27
2023-01-30T07:45:24.730Z,71.00
2023-01-30T07:46:56.600Z,70.62
2023-01-30T07:48:28.291Z,71.20
2023-01-30T07:49:59.913Z,69.86
2023-01-30T07:51:32.149Z,69.87
2023-01-30T07:53:05.019Z,71.24
2023-01-30T07:54:36.632Z,71.11
2023-01-30T07:56:14.310Z,71.06
2023-01-30T07:57:46.059Z,70.05
2023-01-30T07:59:17.779Z,70.09
2023-01-30T08:00:49.475Z,69.81
2023-01-30T08:02:21.214Z,69.91
2023-01-30T08:03:52.873Z,70.59
2023-01-30T08:05:24.760Z,69.29
2023-01-30T08:06:56.607Z,69.25
2023-01-30T08:08:28.213Z,68.77
2023-01-30T08:09:59.837Z,69.54
2023-01-30T08:11:31.404Z,69.48
2023-01-30T08:13:03.400Z,69.60
2023-01-30T08:14:34.970Z,69.64
2023-01-30T08:16:08.052Z,68.73
2023-01-30T08:17:39.633Z,68.89
2023-01-30T08:19:11.279Z,69.20
2023-01-30T08:20:43.043Z,68.42
2023-01-30T08:22:15.132Z,68.80
2023-01-30T08:23:46.838Z,68.31
2023-01-30T08:25:18.543Z,67.92
2023-01-30T08:26:50.428Z,68.37
2023-01-30T08:28:22.094Z,68.31
2023-01-30T08:29:53.812Z,67.80
2023-01-30T08:31:25.533Z,67.92
2023-01-30T08:32:58.412Z,68.32
2023-01-30T08:34:30.174Z,67.60
2023-01-30T08:36:01.856Z,66.98
2023-01-30T08:37:33.684Z,66.52
2023-01-30T08:39:05.354Z,66.06
2023-01-30T08:40:37.262Z,67.55
2023-01-30T08:42:09.171Z,66.56
2023-01-30T08:43:40.816Z,64.87
2023-01-30T08:45:12.557Z,64.74
2023-01-30T08:46:44.304Z,63.15
2023-01-30T08:48:16.007Z,63.07
2023-01-30T08:49:47.792Z,64.00
2023-01-30T08:51:19.495Z,63.54
2023-01-30T08:52:51.175Z,64.20
2023-01-30T08:54:22.920Z,65.35
2023-01-30T08:55:54.594Z,64.77
2023-01-30T08:57:26.418Z,64.63
2023-01-30T08:58:58.067Z,65.36
2023-01-30T09:00:30.355Z,65.77
2023-01-30T09:02:01.919Z,66.09
2023-01-30T09:03:33.556Z,66.35
2023-01-30T09:05:06.662Z,66.93
2023-01-30T09:06:38.283Z,66.75
2023-01-30T09:08:10.171Z,65.65
2023-01-30T09:09:41.821Z,65.95
2023-01-30T09:11:13.421Z,66.29
2023-01-30T09:12:45.195Z,66.50
2023-01-30T09:14:20.016Z,66.62
2023-01-30T09:15:51.734Z,66.28
2023-01-30T09:17:23.842Z,65.93
2023-01-30T09:18:56.231Z,66.09
2023-01-30T09:20:27.891Z,65.69
2023-01-30T09:21:59.570Z,66.06
2023-01-30T09:23:31.499Z,66.49
2023-01-30T09:25:03.716Z,66.32
2023-01-30T09:26:35.388Z,65.63
2023-01-30T09:28:08.193Z,65.52
2023-01-30T09:29:40.009Z,64.54
2023-01-30T09:31:11.724Z,64.08
2023-01-30T09:32:43.569Z,65.48
2023-01-30T09:34:15.402Z,65.30
2023-01-30T09:35:48.232Z,66.05
2023-01-30T09:37:19.915Z,66.14
2023-01-30T09:38:51.597Z,66.68
2023-01-30T09:40:32.632Z,66.22
2023-01-30T09:42:04.266Z,66.92
2023-01-30T09:43:54.606Z,67.41
2023-01-30T09:45:46.787Z,68.01
2023-01-30T09:47:38.638Z,68.07
2023-01-30T09:49:25.328Z,66.91
2023-01-30T09:51:29.149Z,64.67
2023-01-30T09:53:06.625Z,64.01
2023-01-30T09:54:42.879Z,64.16
2023-01-30T09:56:14.944Z,63.79
2023-01-30T09:57:51.638Z,63.41
2023-01-30T09:59:31.441Z,63.72
2023-01-30T10:01:10.422Z,64.44
2023-01-30T10:02:42.452Z,64.98
2023-01-30T10:04:32.324Z,64.80
2023-01-30T10:06:12.881Z,63.99
2023-01-30T10:08:17.403Z,63.41
2023-01-30T10:10:09.616Z,62.09
2023-01-30T10:11:58.490Z,60.96
2023-01-30T10:13:32.880Z,61.91
2023-01-30T10:15:14.786Z,62.19
2023-01-30T10:17:01.235Z,62.51
2023-01-30T10:19:00.791Z,63.34
2023-01-30T10:20:35.489Z,64.23
2023-01-30T10:22:27.949Z,63.83
2023-01-30T10:24:10.172Z,64.28
2023-01-30T10:25:50.421Z,65.23
2023-01-30T10:27:25.446Z,64.77
2023-01-30T10:29:15.132Z,62.97
2023-01-30T10:30:50.417Z,63.04
2023-01-30T10:32:30.257Z,62.52
2023-01-30T10:34:11.548Z,61.51
2023-01-30T10:35:44.462Z,60.71
2023-01-30T10:37:26.805Z,61.59
2023-01-30T10:39:02.500Z,61.23
2023-01-30T10:40:47.078Z,61.37
2023-01-30T10:42:26.731Z,60.94
2023-01-30T10:44:13.521Z,61.18
2023-01-30T10:45:45.083Z,62.49
2023-01-30T10:47:17.130Z,64.27
2023-01-30T10:48:59.012Z,64.58
2023-01-30T10:51:09.515Z,64.56
2023-01-30T10:52:53.022Z,64.56
2023-01-30T10:54:46.077Z,64.50
2023-01-30T10:56:25.659Z,65.65
2023-01-30T10:58:00.041Z,65.33
2023-01-30T10:59:43.210Z,65.63
2023-01-30T11:01:42.536Z,66.31
2023-01-30T11:03:35.734Z,65.95
2023-01-30T11:05:15.498Z,66.33
2023-01-30T11:06:47.757Z,66.85
2023-01-30T11:08:27.909Z,67.58
2023-01-30T11:10:00.876Z,67.01
2023-01-30T11:11:53.815Z,67.54
2023-01-30T11:13:32.956Z,67.83
2023-01-30T11:15:04.878Z,67.83
2023-01-30T11:16:51.585Z,68.14
2023-01-30T11:20:19.279Z,67.32
2023-01-30T11:21:53.702Z,67.08
2023-01-30T11:23:31.679Z,66.82
2023-01-30T11:25:21.961Z,67.78
2023-01-30T11:26:56.005Z,67.83
2023-01-30T11:28:28.390Z,68.79
2023-01-30T11:30:20.837Z,68.58
2023-01-30T11:31:53.851Z,68.96
2023-01-30T11:33:35.035Z,68.77
2023-01-30T11:35:06.544Z,69.00
2023-01-30T11:36:38.986Z,68.82
2023-01-30T11:38:41.873Z,68.34
2023-01-30T11:40:23.875Z,69.11
2023-01-30T11:41:55.466Z,69.00
2023-01-30T11:43:28.923Z,68.58
2023-01-30T11:45:18.435Z,69.11
2023-01-30T11:46:50.234Z,68.99
2023-01-30T11:48:32.795Z,68.83
2023-01-30T11:51:32.103Z,69.41
2023-01-30T11:52:12.452Z,70.01
2023-01-30T11:53:48.247Z,69.77
2023-01-30T11:55:20.871Z,70.57
2023-01-30T11:56:54.984Z,69.87
2023-01-30T11:58:31.879Z,71.00
2023-01-30T12:00:04.345Z,70.74
2023-01-30T12:01:42.472Z,70.84
2023-01-30T12:03:18.715Z,70.59
2023-01-30T12:04:57.568Z,71.09
2023-01-30T12:06:37.568Z,71.03
2023-01-30T12:08:31.258Z,70.64
2023-01-30T12:10:25.089Z,71.74
2023-01-30T12:11:56.909Z,71.89
2023-01-30T12:13:45.476Z,71.54
2023-01-30T12:15:23.293Z,71.44
2023-01-30T12:17:26.379Z,71.77
2023-01-30T12:19:24.030Z,71.73
2023-01-30T12:20:58.495Z,71.30
2023-01-30T12:23:18.564Z,71.59
2023-01-30T12:25:12.241Z,71.57
2023-01-30T12:26:50.771Z,71.79
2023-01-30T12:28:33.353Z,71.94
2023-01-30T12:30:11.236Z,71.92
2023-01-30T12:31:47.787Z,71.94
2023-01-30T12:33:19.624Z,72.00
2023-01-30T12:34:51.327Z,71.61
2023-01-30T12:36:28.851Z,72.00
2023-01-30T12:38:15.599Z,71.89
2023-01-30T12:39:58.991Z,72.24
2023-01-30T12:41:46.390Z,71.52
2023-01-30T12:43:37.061Z,72.58
2023-01-30T12:45:31.033Z,72.47
2023-01-30T12:47:14.704Z,72.04
2023-01-30T12:49:12.391Z,72.44
2023-01-30T12:50:46.710Z,72.13
2023-01-30T12:52:47.161Z,73.01
2023-01-30T12:55:11.014Z,71.98
2023-01-30T12:56:52.910Z,72.81
2023-01-30T12:58:57.805Z,73.04
2023-01-30T13:00:57.166Z,72.21
2023-01-30T13:02:56.506Z,72.63
2023-01-30T13:04:34.448Z,72.33
2023-01-30T13:06:12.686Z,71.85
2023-01-30T13:08:02.220Z,72.20
2023-01-30T13:09:36.756Z,72.05
2023-01-30T13:11:36.041Z,72.50
2023-01-30T13:13:13.433Z,72.70
2023-01-30T13:14:48.135Z,73.31
2023-01-30T13:16:38.690Z,72.70
2023-01-30T13:18:20.832Z,73.02
2023-01-30T13:20:20.915Z,73.10
2023-01-30T13:22:05.859Z,73.09
2023-01-30T13:24:02.129Z,73.76
2023-01-30T13:25:58.668Z,73.59
2023-01-30T13:27:35.440Z,72.88
2023-01-30T13:29:16.445Z,72.78
2023-01-30T13:30:51.341Z,72.37
2023-01-30T13:32:41.527Z,72.69
2023-01-30T13:34:24.966Z,72.68
2023-01-30T13:36:20.811Z,72.77
2023-01-30T13:37:54.648Z,72.30
2023-01-30T13:39:29.150Z,72.51
2023-01-30T13:41:04.103Z,72.13
2023-01-30T13:42:43.808Z,72.30
2023-01-30T13:44:30.912Z,71.85
2023-01-30T13:46:08.063Z,72.48
2023-01-30T13:47:52.453Z,71.95
2023-01-30T13:49:47.857Z,72.47
2023-01-30T13:51:42.252Z,71.75
2023-01-30T13:53:47.120Z,72.61
2023-01-30T13:55:29.909Z,71.88
2023-01-30T13:57:11.170Z,72.78
2023-01-30T13:58:54.210Z,73.44
2023-01-30T14:00:33.857Z,73.60
2023-01-30T14:02:09.555Z,72.83
2023-01-30T14:03:42.548Z,73.08
2023-01-30T14:05:14.360Z,73.24
2023-01-30T14:06:46.504Z,74.23
2023-01-30T14:08:21.628Z,74.26
2023-01-30T14:10:08.379Z,74.57
2023-01-30T14:11:57.563Z,74.51
2023-01-30T14:13:31.299Z,74.17
2023-01-30T14:15:15.006Z,73.73
2023-01-30T14:16:53.374Z,73.69
2023-01-30T14:18:34.038Z,73.32
2023-01-30T14:20:16.329Z,73.76
2023-01-30T14:21:59.591Z,72.96
2023-01-30T14:23:36.278Z,73.52
2023-01-30T14:25:22.846Z,74.38
2023-01-30T14:26:54.492Z,75.20
2023-01-30T14:28:28.896Z,74.98
2023-01-30T14:30:00.580Z,74.97
2023-01-30T14:31:47.973Z,75.33
2023-01-30T14:33:19.605Z,75.54
2023-01-30T14:35:03.105Z,75.04
2023-01-30T14:36:37.142Z,74.64
2023-01-30T14:38:21.964Z,75.19
2023-01-30T14:39:55.722Z,75.27
2023-01-30T14:41:28.484Z,76.05
2023-01-30T14:43:12.438Z,76.07
2023-01-30T14:45:02.478Z,75.88
2023-01-30T14:46:42.735Z,76.53
2023-01-30T14:48:51.038Z,76.95
2023-01-30T14:50:23.798Z,76.87
2023-01-30T14:51:56.435Z,77.01
2023-01-30T14:53:31.165Z,77.42
2023-01-30T14:55:04.582Z,77.82
2023-01-30T14:56:51.757Z,77.59
2023-01-30T14:58:23.685Z,78.08
2023-01-30T15:00:15.648Z,77.73
2023-01-30T15:02:04.313Z,78.35
2023-01-30T15:03:41.181Z,78.49
2023-01-30T15:05:20.752Z,77.31
2023-01-30T15:06:53.473Z,77.18
2023-01-30T15:08:27.358Z,78.01
2023-01-30T15:10:18.175Z,78.50
2023-01-30T15:12:18.932Z,78.65
2023-01-30T15:14:12.408Z,78.80
2023-01-30T15:16:02.319Z,78.06
2023-01-30T15:18:02.020Z,79.23
2023-01-30T15:19:57.092Z,79.50
2023-01-30T15:21:47.425Z,79.49
2023-01-30T15:23:35.614Z,79.19
2023-01-30T15:25:22.503Z,79.73
2023-01-30T15:27:12.903Z,80.34
2023-01-30T15:29:05.874Z,80.59
2023-01-30T15:30:43.452Z,79.90
2023-01-30T15:32:18.562Z,80.06
2023-01-30T15:33:52.725Z,80.87
2023-01-30T15:35:27.972Z,78.80
2023-01-30T15:36:59.914Z,79.42
2023-01-30T15:38:34.197Z,80.36
2023-01-30T15:40:14.851Z,79.97
2023-01-30T15:41:46.795Z,79.63
2023-01-30T15:43:27.501Z,79.57
2023-01-30T15:45:29.911Z,80.95
2023-01-30T15:47:10.481Z,80.09
2023-01-30T15:48:56.997Z,80.36
2023-01-30T15:50:28.981Z,80.49
2023-01-30T15:52:03.611Z,80.93
2023-01-30T15:53:40.335Z,80.54
2023-01-30T15:55:42.073Z,80.97
2023-01-30T15:57:20.815Z,80.87
2023-01-30T15:58:53.400Z,80.71
2023-01-30T16:00:29.974Z,80.76
2023-01-30T16:02:15.852Z,80.57
2023-01-30T16:03:50.199Z,81.51
2023-01-30T16:05:25.450Z,81.15
2023-01-30T16:06:57.503Z,81.06
2023-01-30T16:08:31.458Z,81.50
2023-01-30T16:10:08.155Z,81.62
2023-01-30T16:11:42.212Z,81.62
2023-01-30T16:13:13.926Z,81.58
2023-01-30T16:14:45.599Z,81.95
2023-01-30T16:16:19.984Z,80.75
2023-01-30T16:18:06.162Z,80.36
2023-01-30T16:19:39.016Z,80.66
2023-01-30T16:21:18.931Z,81.32
2023-01-30T16:22:50.706Z,80.32
2023-01-30T16:24:32.070Z,80.50
2023-01-30T16:26:06.843Z,80.44
2023-01-30T16:27:40.831Z,80.24
2023-01-30T16:29:19.321Z,80.00
2023-01-30T16:31:02.545Z,80.02
2023-01-30T16:32:35.056Z,79.98
2023-01-30T16:34:22.154Z,80.17
2023-01-30T16:36:00.782Z,80.31
2023-01-30T16:37:32.700Z,79.89
2023-01-30T16:39:48.801Z,80.63
2023-01-30T16:41:41.124Z,80.39
2023-01-30T16:43:23.175Z,80.51
2023-01-30T16:45:11.683Z,80.44
2023-01-30T16:46:49.605Z,80.65
2023-01-30T16:48:33.388Z,81.02
2023-01-30T16:50:17.760Z,80.71
2023-01-30T16:51:51.092Z,80.86
2023-01-30T16:53:22.932Z,80.69
2023-01-30T16:54:57.768Z,80.69
2023-01-30T16:56:33.239Z,80.82
2023-01-30T16:58:05.784Z,80.98
2023-01-30T16:59:37.998Z,80.60
2023-01-30T17:01:09.696Z,81.19
2023-01-30T17:02:42.933Z,81.10
2023-01-30T17:04:22.453Z,81.21
2023-01-30T17:05:54.442Z,80.85
2023-01-30T17:07:35.158Z,81.28
2023-01-30T17:09:44.417Z,80.93
2023-01-30T17:11:31.313Z,81.29
2023-01-30T17:13:03.778Z,81.83
2023-01-30T17:14:35.450Z,81.70
2023-01-30T17:16:33.995Z,81.60
2023-01-30T17:18:09.561Z,82.09
2023-01-30T17:19:41.705Z,81.73
2023-01-30T17:21:15.139Z,81.72
2023-01-30T17:22:50.092Z,81.55
2023-01-30T17:24:23.430Z,81.59
2023-01-30T17:25:55.103Z,81.68
2023-01-30T17:27:28.856Z,81.76
2023-01-30T17:29:00.566Z,81.63
2023-01-30T17:30:32.282Z,81.05
2023-01-30T17:32:10.289Z,80.64
2023-01-30T17:33:42.843Z,80.84
2023-01-30T17:35:14.863Z,80.05
2023-01-30T17:36:47.325Z,80.70
2023-01-30T17:38:19.128Z,79.95
2023-01-30T17:39:50.916Z,79.76
2023-01-30T17:41:25.976Z,80.66
2023-01-30T17:42:57.728Z,80.49
2023-01-30T17:44:29.560Z,80.30
2023-01-30T17:46:01.394Z,79.95
2023-01-30T17:47:33.813Z,79.75
2023-01-30T17:49:12.680Z,79.78
2023-01-30T17:50:44.285Z,79.70
2023-01-30T17:52:16.023Z,79.65
2023-01-30T17:53:47.736Z,79.83
2023-01-30T17:55:21.505Z,79.92
2023-01-30T17:57:01.007Z,80.04
2023-01-30T17:58:32.965Z,80.01
2023-01-30T18:00:05.664Z,79.58
2023-01-30T18:01:42.187Z,80.15
2023-01-30T18:03:14.822Z,79.95
2023-01-30T18:04:46.525Z,80.14
2023-01-30T18:06:18.616Z,79.98
2023-01-30T18:07:50.359Z,79.81
2023-01-30T18:09:24.159Z,80.18
2023-01-30T18:10:55.865Z,79.69
2023-01-30T18:12:27.824Z,80.30
2023-01-30T18:13:59.746Z,80.55
2023-01-30T18:15:32.331Z,80.39
2023-01-30T18:17:04.389Z,80.70
2023-01-30T18:18:36.424Z,80.24
2023-01-30T18:20:10.111Z,80.25
2023-01-30T18:21:45.933Z,79.88
2023-01-30T18:23:18.150Z,79.82
2023-01-30T18:24:50.035Z,80.39
2023-01-30T18:26:21.911Z,80.90
2023-01-30T18:27:55.397Z,80.83
2023-01-30T18:29:27.496Z,79.91
2023-01-30T18:30:59.693Z,79.97
2023-01-30T18:32:33.398Z,80.21
2023-01-30T18:34:07.589Z,80.56
2023-01-30T18:35:39.461Z,81.32
2023-01-30T18:37:11.564Z,81.07
2023-01-30T18:38:43.837Z,81.22
2023-01-30T18:40:16.087Z,81.35
2023-01-30T18:41:48.059Z,80.65
2023-01-30T18:43:21.914Z,81.18
2023-01-30T18:44:54.441Z,81.16
2023-01-30T18:46:27.245Z,81.31
2023-01-30T18:47:59.708Z,81.73
2023-01-30T18:49:31.948Z,81.20
2023-01-30T18:51:09.913Z,81.74
2023-01-30T18:52:42.519Z,82.23
2023-01-30T18:54:14.278Z,81.64
2023-01-30T18:55:50.725Z,82.06
2023-01-30T18:57:22.823Z,82.10
2023-01-30T18:58:56.573Z,82.16
2023-01-30T19:00:28.721Z,82.53
2023-01-30T19:02:00.986Z,82.11
2023-01-30T19:03:33.448Z,81.98
2023-01-30T19:05:06.254Z,82.28
2023-01-30T19:06:41.543Z,82.43
2023-01-30T19:08:13.779Z,82.43
2023-01-30T19:09:46.103Z,82.03
2023-01-30T19:11:39.768Z,82.50
2023-01-30T19:13:30.246Z,82.28
2023-01-30T19:15:03.599Z,82.56
2023-01-30T19:16:37.428Z,82.21
2023-01-30T19:18:09.452Z,82.27
2023-01-30T19:19:42.599Z,82.05
2023-01-30T19:21:14.495Z,82.79
2023-01-30T19:22:49.491Z,83.11
2023-01-30T19:24:21.414Z,83.26
2023-01-30T19:25:57.573Z,83.63
2023-01-30T19:27:29.257Z,83.64
2023-01-30T19:29:01.185Z,83.62
2023-01-30T19:30:32.947Z,83.30
2023-01-30T19:32:05.169Z,83.32
2023-01-30T19:33:37.060Z,83.35
2023-01-30T19:35:09.482Z,83.15
2023-01-30T19:36:41.703Z,82.45
2023-01-30T19:38:13.818Z,82.99
2023-01-30T19:39:45.767Z,83.36
2023-01-30T19:41:25.109Z,83.37
2023-01-30T19:43:05.608Z,83.38
2023-01-30T19:44:42.924Z,83.18
2023-01-30T19:46:15.548Z,82.78
2023-01-30T19:47:47.534Z,83.19
2023-01-30T19:49:19.786Z,83.68
2023-01-30T19:50:52.910Z,83.90
2023-01-30T19:52:24.971Z,83.91
2023-01-30T19:54:02.296Z,84.09
2023-01-30T19:55:35.743Z,84.48
2023-01-30T19:57:09.072Z,83.84
2023-01-30T19:58:42.224Z,83.87
2023-01-30T20:00:15.524Z,83.81
2023-01-30T20:01:48.594Z,83.54
2023-01-30T20:03:20.545Z,83.69
2023-01-30T20:04:52.507Z,83.60
2023-01-30T20:06:29.650Z,83.69
2023-01-30T20:08:01.820Z,83.55
2023-01-30T20:09:33.857Z,83.32
2023-01-30T20:11:08.120Z,83.28
2023-01-30T20:12:39.937Z,83.50
2023-01-30T20:14:12.328Z,83.69
2023-01-30T20:15:44.505Z,82.81
2023-01-30T20:17:16.860Z,82.69
2023-01-30T20:18:54.775Z,82.89
2023-01-30T20:20:29.916Z,82.70
2023-01-30T20:22:08.280Z,81.85
2023-01-30T20:23:47.315Z,81.76
2023-01-30T20:25:19.855Z,82.10
2023-01-30T20:26:53.354Z,82.12
2023-01-30T20:28:25.225Z,82.13
2023-01-30T20:29:57.092Z,82.08
2023-01-30T20:31:30.565Z,82.04
2023-01-30T20:33:02.849Z,81.88
2023-01-30T20:34:34.784Z,82.57
2023-01-30T20:36:09.538Z,82.27
2023-01-30T20:37:42.137Z,82.38
2023-01-30T20:39:15.097Z,82.30
2023-01-30T20:40:47.714Z,82.59
2023-01-30T20:42:19.875Z,82.21
2023-01-30T20:43:54.111Z,82.06
2023-01-30T20:45:26.025Z,82.10
2023-01-30T20:46:58.298Z,81.68
2023-01-30T20:48:30.714Z,81.46
2023-01-30T20:50:04.201Z,81.74
2023-01-30T20:51:37.196Z,81.41